createdAt,value
2022-08-28T00:04:03.666Z,27.32
2022-08-28T00:10:32.864Z,27.43
2022-08-28T00:17:17.763Z,27.57
2022-08-28T00:23:43.080Z,27.41
2022-08-28T00:30:06.788Z,27.37
2022-08-28T00:36:43.449Z,27.32
2022-08-28T00:43:11.689Z,27.33
2022-08-28T00:49:47.699Z,27.3
2022-08-28T00:56:41.709Z,27.32
2022-08-28T01:03:20.772Z,27.28
2022-08-28T01:09:52.739Z,27.29
2022-08-28T01:16:39.731Z,27.32
2022-08-28T01:23:41.566Z,27.28
2022-08-28T01:30:23.672Z,27.4
2022-08-28T01:37:03.586Z,27.33
2022-08-28T01:43:43.679Z,27.28
2022-08-28T01:50:31.091Z,27.25
2022-08-28T01:57:07.638Z,27.25
2022-08-28T02:03:39.093Z,27.26
2022-08-28T02:10:12.775Z,27.24
2022-08-28T02:16:36.773Z,27.26
2022-08-28T02:23:05.019Z,27.25
2022-08-28T02:29:34.937Z,27.23
2022-08-28T02:36:25.020Z,27.28
2022-08-28T02:42:52.548Z,27.27
2022-08-28T02:49:20.602Z,27.26
2022-08-28T02:55:55.793Z,27.24
2022-08-28T03:02:27.503Z,27.25
2022-08-28T03:08:54.726Z,27.24
2022-08-28T03:15:27.579Z,27.22
2022-08-28T03:22:00.838Z,27.27
2022-08-28T03:28:32.955Z,27.25
2022-08-28T03:34:59.570Z,27.37
2022-08-28T03:41:27.811Z,27.28
2022-08-28T03:48:00.220Z,27.42
2022-08-28T03:54:32.913Z,27.38
2022-08-28T04:01:19.852Z,27.25
2022-08-28T04:07:46.858Z,27.27
2022-08-28T04:14:10.745Z,27.25
2022-08-28T04:20:36.741Z,27.23
2022-08-28T04:27:10.607Z,27.23
2022-08-28T04:33:48.886Z,27.19
2022-08-28T04:40:18.802Z,27.2
2022-08-28T04:46:58.915Z,27.23
2022-08-28T04:53:29.170Z,27.24
2022-08-28T04:59:59.568Z,27.26
2022-08-28T05:06:32.672Z,27.25
2022-08-28T05:13:18.697Z,27.26
2022-08-28T05:19:47.059Z,27.27
2022-08-28T05:26:22.790Z,27.24
2022-08-28T05:33:06.784Z,27.27
2022-08-28T05:39:42.394Z,27.26
2022-08-28T05:46:11.889Z,27.24
2022-08-28T05:52:35.643Z,27.24
2022-08-28T05:59:06.201Z,27.24
2022-08-28T06:05:46.812Z,27.21
2022-08-28T06:12:26.727Z,27.24
2022-08-28T06:18:55.762Z,27.25
2022-08-28T06:25:32.748Z,27.29
2022-08-28T06:32:22.304Z,27.33
2022-08-28T06:38:55.290Z,27.29
2022-08-28T06:45:28.842Z,27.38
2022-08-28T06:52:04.912Z,27.47
2022-08-28T06:58:39.683Z,27.35
2022-08-28T07:05:30.380Z,27.5
2022-08-28T07:12:02.887Z,27.44
2022-08-28T07:18:31.937Z,27.33
2022-08-28T07:24:56.934Z,27.33
2022-08-28T07:31:32.115Z,27.41
2022-08-28T07:38:14.554Z,27.54
2022-08-28T07:44:49.897Z,27.5
2022-08-28T07:51:22.907Z,27.4
2022-08-28T07:57:52.325Z,27.41
2022-08-28T08:04:15.935Z,27.45
2022-08-28T08:10:43.006Z,27.42
2022-08-28T08:17:21.763Z,27.42
2022-08-28T08:23:53.749Z,27.41
2022-08-28T08:30:30.881Z,27.38
2022-08-28T08:37:09.790Z,27.42
2022-08-28T08:43:50.933Z,27.39
2022-08-28T08:50:37.294Z,27.41
2022-08-28T08:57:46.149Z,27.38
2022-08-28T09:04:56.394Z,27.4
2022-08-28T09:12:01.208Z,27.43
2022-08-28T09:19:02.910Z,27.45
2022-08-28T09:25:41.082Z,27.41
2022-08-28T09:32:31.897Z,27.48
2022-08-28T09:39:28.917Z,27.6
2022-08-28T09:46:19.105Z,27.58
2022-08-28T09:52:59.185Z,27.58
2022-08-28T09:59:59.342Z,27.61
2022-08-28T10:07:05.139Z,27.73
2022-08-28T10:14:09.169Z,27.63
2022-08-28T10:21:07.351Z,27.58
2022-08-28T10:28:16.483Z,27.48
2022-08-28T10:35:32.954Z,27.56
2022-08-28T10:42:36.093Z,27.52
2022-08-28T10:49:42.923Z,27.58
2022-08-28T10:56:42.974Z,27.58
2022-08-28T11:03:40.010Z,27.61
2022-08-28T11:10:41.969Z,27.6
2022-08-28T11:17:30.973Z,27.55
2022-08-28T11:24:43.938Z,27.62
2022-08-28T11:31:49.948Z,27.64
2022-08-28T11:38:38.908Z,27.61
2022-08-28T11:45:24.022Z,27.62
2022-08-28T11:52:23.040Z,27.65
2022-08-28T11:59:35.181Z,27.63
2022-08-28T12:06:29.915Z,27.69
2022-08-28T12:13:19.948Z,27.67
2022-08-28T12:20:09.123Z,27.71
2022-08-28T12:27:03.025Z,27.71
2022-08-28T12:34:03.430Z,27.72
2022-08-28T12:41:01.484Z,27.73
2022-08-28T12:47:54.978Z,27.8
2022-08-28T12:54:54.130Z,27.78
2022-08-28T13:01:33.758Z,27.72
2022-08-28T13:08:26.565Z,27.73
2022-08-28T13:15:24.236Z,27.75
2022-08-28T13:22:35.412Z,27.72
2022-08-28T13:29:21.209Z,27.77
2022-08-28T13:36:09.918Z,27.88
2022-08-28T13:42:54.978Z,27.91
2022-08-28T13:49:42.016Z,27.88
2022-08-28T13:56:17.049Z,27.92
2022-08-28T14:02:45.505Z,27.93
2022-08-28T14:09:13.524Z,28.02
2022-08-28T14:15:38.433Z,28.2
2022-08-28T14:22:02.187Z,28.29
2022-08-28T14:28:26.177Z,28.31
2022-08-28T14:34:53.079Z,28.26
2022-08-28T14:41:29.569Z,28.27
2022-08-28T14:47:53.164Z,28.21
2022-08-28T14:54:20.436Z,28.22
2022-08-28T15:00:53.232Z,28.31
2022-08-28T15:07:33.157Z,28.36
2022-08-28T15:14:11.286Z,28.44
2022-08-28T15:20:45.973Z,28.41
2022-08-28T15:27:23.964Z,28.59
2022-08-28T15:33:51.456Z,28.71
2022-08-28T15:40:31.126Z,28.8
2022-08-28T15:47:12.488Z,28.93
2022-08-28T15:53:43.127Z,28.85
2022-08-28T16:00:10.293Z,28.82
2022-08-28T16:07:00.521Z,28.87
2022-08-28T16:13:25.074Z,28.77
2022-08-28T16:19:50.008Z,28.75
2022-08-28T16:26:17.194Z,28.81
2022-08-28T16:32:50.228Z,28.83
2022-08-28T16:39:24.068Z,28.72
2022-08-28T16:45:51.385Z,28.75
2022-08-28T16:52:14.114Z,28.59
2022-08-28T16:58:39.612Z,28.42
2022-08-28T17:05:10.025Z,28.26
2022-08-28T17:11:38.551Z,28.17
2022-08-28T17:18:13.243Z,28.1
2022-08-28T17:24:38.176Z,28.13
2022-08-28T17:31:02.133Z,28
2022-08-28T17:37:40.218Z,27.94
2022-08-28T17:44:13.170Z,27.94
2022-08-28T17:50:41.450Z,27.86
2022-08-28T17:57:19.173Z,27.9
2022-08-28T18:03:53.369Z,27.78
2022-08-28T18:10:24.625Z,27.81
2022-08-28T18:16:53.342Z,27.78
2022-08-28T18:23:26.219Z,27.72
2022-08-28T18:30:03.229Z,27.72
2022-08-28T18:36:39.110Z,27.63
2022-08-28T18:43:09.194Z,27.54
2022-08-28T18:49:39.991Z,27.4
2022-08-28T18:56:13.728Z,27.4
2022-08-28T19:02:41.542Z,27.27
2022-08-28T19:09:05.436Z,27.24
2022-08-28T19:15:30.336Z,27.29
2022-08-28T19:22:09.443Z,27.32
2022-08-28T19:28:40.160Z,27.23
2022-08-28T19:35:07.240Z,27.24
2022-08-28T19:41:37.301Z,27.14
2022-08-28T19:48:05.868Z,27.09
2022-08-28T19:54:31.227Z,27.03
2022-08-28T20:01:07.090Z,27.05
2022-08-28T20:07:36.686Z,27.01
2022-08-28T20:14:09.068Z,26.99
2022-08-28T20:20:38.380Z,27
2022-08-28T20:27:06.203Z,26.99
2022-08-28T20:33:34.299Z,26.95
2022-08-28T20:40:06.631Z,26.91
2022-08-28T20:46:55.257Z,26.92
2022-08-28T20:53:21.379Z,26.89
2022-08-28T21:00:13.831Z,26.85
2022-08-28T21:06:43.556Z,26.88
2022-08-28T21:13:25.347Z,26.88
2022-08-28T21:20:04.550Z,26.94
2022-08-28T21:26:34.346Z,27.05
2022-08-28T21:33:04.249Z,27.14
2022-08-28T21:39:42.919Z,27.29
2022-08-28T21:46:18.227Z,27.21
2022-08-28T21:52:45.375Z,27.19
2022-08-28T21:59:20.394Z,27.18
2022-08-28T22:05:59.775Z,27.21
2022-08-28T22:12:35.427Z,27.22
2022-08-28T22:19:07.363Z,27.32
2022-08-28T22:25:33.387Z,27.47
2022-08-28T22:32:11.054Z,27.52
2022-08-28T22:38:41.382Z,27.5
2022-08-28T22:45:29.642Z,27.39
2022-08-28T22:52:10.517Z,27.46
2022-08-28T22:58:37.716Z,27.34
2022-08-28T23:05:12.113Z,27.39
2022-08-28T23:11:37.970Z,27.26
2022-08-28T23:18:06.814Z,27.27
2022-08-28T23:24:36.135Z,27.22
2022-08-28T23:31:07.305Z,27.23
2022-08-28T23:37:37.448Z,27.27
2022-08-28T23:44:09.085Z,27.34
2022-08-28T23:50:41.374Z,27.27
2022-08-28T23:57:08.410Z,27.23
